createdAt,value
2018-11-03T00:01:48.513Z,101675.39
2018-11-03T00:04:19.231Z,101673.67
2018-11-03T00:07:04.526Z,101676.27
2018-11-03T00:09:35.183Z,101668.86
2018-11-03T00:12:06.025Z,101671.05
2018-11-03T00:14:36.698Z,101675.84
2018-11-03T00:17:07.572Z,101673.66
2018-11-03T00:19:38.440Z,101675.40
2018-11-03T00:22:09.356Z,101677.16
2018-11-03T00:24:40.253Z,101677.16
2018-11-03T00:27:11.131Z,101676.70
2018-11-03T00:29:42.003Z,101676.73
2018-11-03T00:32:12.800Z,101670.63
2018-11-03T00:34:43.680Z,101670.61
2018-11-03T00:37:14.525Z,101672.80
2018-11-03T00:39:45.362Z,101677.16
2018-11-03T00:42:16.221Z,101676.28
2018-11-03T00:44:47.100Z,101677.60
2018-11-03T00:47:17.978Z,101669.76
2018-11-03T00:49:48.953Z,101671.06
2018-11-03T00:52:19.907Z,101671.91
2018-11-03T00:54:50.923Z,101667.56
2018-11-03T00:57:21.894Z,101670.59
2018-11-03T00:59:52.840Z,101673.19
2018-11-03T01:02:23.763Z,101661.02
2018-11-03T01:04:54.694Z,101662.31
2018-11-03T01:07:25.518Z,101665.78
2018-11-03T01:09:56.449Z,101664.89
2018-11-03T01:12:27.473Z,101663.58
2018-11-03T01:14:58.416Z,101675.33
2018-11-03T01:17:29.074Z,101675.74
2018-11-03T01:19:59.726Z,101688.35
2018-11-03T01:22:30.608Z,101682.28
2018-11-03T01:25:01.213Z,101676.19
2018-11-03T01:27:31.948Z,101672.30
2018-11-03T01:30:02.611Z,101674.45
2018-11-03T01:32:33.502Z,101671.87
2018-11-03T01:35:34.619Z,101668.38
2018-11-03T01:38:05.315Z,101671.84
2018-11-03T01:40:35.978Z,101661.41
2018-11-03T01:43:07.250Z,101664.02
2018-11-03T01:45:37.951Z,101661.43
2018-11-03T01:48:08.647Z,101664.03
2018-11-03T01:50:39.332Z,101670.98
2018-11-03T01:53:10.001Z,101669.69
2018-11-03T01:55:40.743Z,101675.34
2018-11-03T01:58:11.424Z,101674.47
2018-11-03T02:00:42.160Z,101666.66
2018-11-03T02:03:12.865Z,101668.39
2018-11-03T02:05:43.499Z,101663.56
2018-11-03T02:08:14.119Z,101660.93
2018-11-03T02:10:44.824Z,101668.30
2018-11-03T02:13:15.583Z,101667.83
2018-11-03T02:15:46.222Z,101676.93
2018-11-03T02:18:16.846Z,101675.62
2018-11-03T02:20:47.596Z,101673.90
2018-11-03T02:23:18.162Z,101675.62
2018-11-03T02:25:48.833Z,101670.86
2018-11-03T02:28:19.559Z,101669.11
2018-11-03T02:30:50.195Z,101662.17
2018-11-03T02:33:20.845Z,101664.32
2018-11-03T02:35:51.509Z,101663.46
2018-11-03T02:38:22.155Z,101673.07
2018-11-03T02:40:52.827Z,101680.91
2018-11-03T02:43:23.471Z,101681.33
2018-11-03T02:45:54.150Z,101682.64
2018-11-03T02:48:24.913Z,101692.20
2018-11-03T02:50:55.600Z,101694.82
2018-11-03T02:53:26.279Z,101684.83
2018-11-03T02:55:56.996Z,101690.48
2018-11-03T02:58:27.669Z,101690.91
2018-11-03T03:00:58.381Z,101691.31
2018-11-03T03:03:28.990Z,101690.02
2018-11-03T03:05:59.662Z,101686.98
2018-11-03T03:08:30.288Z,101673.48
2018-11-03T03:11:00.972Z,101673.06
2018-11-03T03:13:31.631Z,101672.19
2018-11-03T03:16:02.262Z,101681.30
2018-11-03T03:18:32.935Z,101680.41
2018-11-03T03:21:03.686Z,101681.23
2018-11-03T03:23:34.304Z,101679.50
2018-11-03T03:26:04.963Z,101685.19
2018-11-03T03:28:35.705Z,101682.13
2018-11-03T03:31:06.664Z,101686.03
2018-11-03T03:33:37.348Z,101696.05
2018-11-03T03:36:08.110Z,101696.47
2018-11-03T03:38:38.759Z,101690.38
2018-11-03T03:41:09.474Z,101688.63
2018-11-03T03:43:40.163Z,101689.00
2018-11-03T03:46:10.834Z,101690.25
2018-11-03T03:48:41.857Z,101688.47
2018-11-03T03:51:12.594Z,101702.41
2018-11-03T03:53:43.280Z,101705.02
2018-11-03T03:56:13.924Z,101707.98
2018-11-03T03:58:44.648Z,101702.74
2018-11-03T04:01:15.319Z,101698.84
2018-11-03T04:03:46.068Z,101706.59
2018-11-03T04:06:16.648Z,101711.30
2018-11-03T04:08:47.507Z,101706.06
2018-11-03T04:11:18.138Z,101705.14
2018-11-03T04:13:48.778Z,101708.97
2018-11-03T04:16:19.446Z,101708.93
2018-11-03T04:18:50.222Z,101700.20
2018-11-03T04:21:28.215Z,101695.45
2018-11-03T04:23:59.323Z,101697.25
2018-11-03T04:26:30.798Z,101702.08
2018-11-03T04:29:01.537Z,101686.48
2018-11-03T04:31:32.250Z,101692.97
2018-11-03T04:34:02.897Z,101693.35
2018-11-03T04:36:33.575Z,101695.50
2018-11-03T04:39:04.965Z,101695.45
2018-11-03T04:41:35.638Z,101690.20
2018-11-03T04:44:06.315Z,101688.41
2018-11-03T04:46:36.999Z,101689.67
2018-11-03T04:49:07.644Z,101697.05
2018-11-03T04:51:38.316Z,101694.45
2018-11-03T04:54:09.062Z,101699.20
2018-11-03T04:56:39.761Z,101701.84
2018-11-03T04:59:10.430Z,101704.44
2018-11-03T05:01:41.194Z,101704.02
2018-11-03T05:04:11.932Z,101698.86
2018-11-03T05:06:42.607Z,101693.20
2018-11-03T05:09:13.282Z,101701.00
2018-11-03T05:11:43.947Z,101702.30
2018-11-03T05:14:14.603Z,101699.23
2018-11-03T05:16:45.346Z,101700.12
2018-11-03T05:19:15.983Z,101704.91
2018-11-03T05:21:46.652Z,101696.64
2018-11-03T05:24:17.294Z,101693.56
2018-11-03T05:26:47.944Z,101695.71
2018-11-03T05:29:18.584Z,101704.39
2018-11-03T05:31:49.237Z,101704.35
2018-11-03T05:34:19.926Z,101706.95
2018-11-03T05:36:50.487Z,101709.56
2018-11-03T05:39:21.152Z,101703.89
2018-11-03T05:41:51.785Z,101705.61
2018-11-03T05:44:22.421Z,101708.59
2018-11-03T05:46:53.165Z,101703.34
2018-11-03T05:49:23.855Z,101703.75
2018-11-03T05:51:54.665Z,101705.41
2018-11-03T05:54:25.328Z,101707.50
2018-11-03T05:56:56.039Z,101725.23
2018-11-03T05:59:26.690Z,101722.64
2018-11-03T06:01:57.399Z,101720.88
2018-11-03T06:04:28.155Z,101726.96
2018-11-03T06:06:58.918Z,101731.27
2018-11-03T06:09:29.582Z,101731.22
2018-11-03T06:12:00.257Z,101734.28
2018-11-03T06:14:30.918Z,101737.84
2018-11-03T06:17:01.663Z,101733.09
2018-11-03T06:19:32.409Z,101734.81
2018-11-03T06:22:03.086Z,101737.41
2018-11-03T06:24:33.687Z,101733.50
2018-11-03T06:27:04.389Z,101724.87
2018-11-03T06:29:35.133Z,101725.72
2018-11-03T06:32:06.271Z,101741.78
2018-11-03T06:34:36.943Z,101738.34
2018-11-03T06:37:07.924Z,101743.61
2018-11-03T06:39:38.777Z,101748.45
2018-11-03T06:42:09.434Z,101742.45
2018-11-03T06:44:40.083Z,101749.89
2018-11-03T06:47:10.771Z,101752.09
2018-11-03T06:49:41.408Z,101758.21
2018-11-03T06:52:12.163Z,101768.26
2018-11-03T06:54:42.756Z,101761.47
2018-11-03T06:57:13.418Z,101759.95
2018-11-03T06:59:44.063Z,101763.66
2018-11-03T07:02:14.742Z,101760.82
2018-11-03T07:04:45.394Z,101767.61
2018-11-03T07:07:16.095Z,101767.30
2018-11-03T07:09:46.803Z,101764.63
2018-11-03T07:12:17.577Z,101761.91
2018-11-03T07:14:48.146Z,101759.07
2018-11-03T07:17:18.795Z,101763.36
2018-11-03T07:19:49.472Z,101763.64
2018-11-03T07:22:20.120Z,101755.92
2018-11-03T07:24:50.932Z,101749.72
2018-11-03T07:27:21.557Z,101746.08
2018-11-03T07:29:52.411Z,101749.97
2018-11-03T07:32:22.995Z,101755.16
2018-11-03T07:34:53.683Z,101755.39
2018-11-03T07:37:24.299Z,101747.20
2018-11-03T07:39:54.931Z,101750.47
2018-11-03T07:42:25.614Z,101748.83
2018-11-03T07:44:56.307Z,101748.28
2018-11-03T07:47:26.997Z,101743.81
2018-11-03T07:49:57.642Z,101741.91
2018-11-03T07:52:28.356Z,101741.69
2018-11-03T07:54:59.082Z,101740.73
2018-11-03T07:57:29.795Z,101738.09
2018-11-03T08:00:00.417Z,101734.84
2018-11-03T08:02:31.060Z,101743.48
2018-11-03T08:05:01.775Z,101745.13
2018-11-03T08:07:32.432Z,101744.53
2018-11-03T08:10:03.135Z,101742.63
2018-11-03T08:12:33.737Z,101734.17
2018-11-03T08:15:04.573Z,101745.83
2018-11-03T08:17:35.295Z,101745.70
2018-11-03T08:20:07.524Z,101743.78
2018-11-03T08:22:38.248Z,101742.24
2018-11-03T08:25:09.297Z,101742.61
2018-11-03T08:27:40.048Z,101739.99
2018-11-03T08:30:13.155Z,101738.98
2018-11-03T08:32:44.341Z,101737.83
2018-11-03T08:35:15.040Z,101744.55
2018-11-03T08:37:46.261Z,101740.09
2018-11-03T08:40:16.879Z,101729.61
2018-11-03T08:42:47.539Z,101729.98
2018-11-03T08:45:18.257Z,101730.55
2018-11-03T08:47:48.948Z,101723.14
2018-11-03T08:50:19.595Z,101725.59
2018-11-03T08:52:50.258Z,101720.50
2018-11-03T08:55:20.909Z,101725.98
2018-11-03T08:57:51.588Z,101720.53
2018-11-03T09:00:22.234Z,101720.37
2018-11-03T09:02:52.896Z,101721.07
2018-11-03T09:05:23.598Z,101721.44
2018-11-03T09:08:25.221Z,101726.06
2018-11-03T09:10:56.265Z,101725.73
2018-11-03T09:13:27.011Z,101720.86
2018-11-03T09:15:57.752Z,101711.54
2018-11-03T09:18:28.495Z,101702.53
2018-11-03T09:20:59.365Z,101697.05
2018-11-03T09:23:30.181Z,101702.35
2018-11-03T09:26:01.136Z,101702.37
2018-11-03T09:28:31.934Z,101707.33
2018-11-03T09:31:02.749Z,101703.67
2018-11-03T09:33:33.457Z,101704.52
2018-11-03T09:36:04.257Z,101696.81
2018-11-03T09:38:35.057Z,101698.23
2018-11-03T09:41:06.060Z,101695.70
2018-11-03T09:43:37.062Z,101697.34
2018-11-03T09:46:07.867Z,101701.15
2018-11-03T09:48:38.745Z,101702.80
2018-11-03T09:51:09.638Z,101708.31
2018-11-03T09:53:40.420Z,101706.34
2018-11-03T09:56:11.100Z,101699.06
2018-11-03T09:58:41.735Z,101711.02
2018-11-03T10:01:12.461Z,101708.17
2018-11-03T10:03:43.226Z,101699.70
2018-11-03T10:06:14.009Z,101694.47
2018-11-03T10:08:44.748Z,101693.97
2018-11-03T10:11:15.592Z,101686.86
2018-11-03T10:13:46.220Z,101685.73
2018-11-03T10:16:17.076Z,101683.62
2018-11-03T10:18:47.815Z,101672.89
2018-11-03T10:21:18.528Z,101676.45
2018-11-03T10:23:49.224Z,101676.05
2018-11-03T10:26:19.899Z,101672.48
2018-11-03T10:28:50.565Z,101677.14
2018-11-03T10:31:21.319Z,101677.72
2018-11-03T10:33:52.072Z,101674.89
2018-11-03T10:36:22.732Z,101667.33
2018-11-03T10:38:53.469Z,101670.92
2018-11-03T10:41:24.179Z,101675.20
2018-11-03T10:43:54.806Z,101674.88
2018-11-03T10:46:25.541Z,101669.54
2018-11-03T10:48:56.149Z,101672.95
2018-11-03T10:51:26.817Z,101665.94
2018-11-03T10:53:57.482Z,101659.73
2018-11-03T10:56:28.242Z,101662.35
2018-11-03T10:58:58.837Z,101663.67
2018-11-03T11:01:34.773Z,101656.77
2018-11-03T11:04:10.792Z,101659.41
2018-11-03T11:06:46.586Z,101651.11
2018-11-03T11:09:22.579Z,101651.75
2018-11-03T11:11:58.379Z,101650.28
2018-11-03T11:14:29.108Z,101654.31
2018-11-03T11:16:59.992Z,101648.74
2018-11-03T11:19:30.567Z,101645.99
2018-11-03T11:22:01.270Z,101642.59
2018-11-03T11:24:31.974Z,101636.33
2018-11-03T11:27:02.555Z,101640.00
2018-11-03T11:29:33.240Z,101636.67
2018-11-03T11:32:04.091Z,101640.13
2018-11-03T11:34:34.754Z,101644.55
2018-11-03T11:37:05.585Z,101631.47
2018-11-03T11:39:36.312Z,101629.19
2018-11-03T11:42:07.042Z,101624.81
2018-11-03T11:44:37.816Z,101616.89
2018-11-03T11:47:08.531Z,101613.00
2018-11-03T11:49:39.215Z,101608.29
2018-11-03T11:52:09.862Z,101602.45
2018-11-03T11:54:40.536Z,101604.27
2018-11-03T11:57:11.180Z,101596.66
2018-11-03T11:59:41.992Z,101598.09
2018-11-03T12:02:12.761Z,101593.70
2018-11-03T12:04:43.381Z,101586.44
2018-11-03T12:07:14.033Z,101591.92
2018-11-03T12:09:44.731Z,101586.19
2018-11-03T12:12:15.368Z,101592.79
2018-11-03T12:14:46.174Z,101588.94
2018-11-03T12:17:16.798Z,101588.83
2018-11-03T12:19:47.546Z,101586.31
2018-11-03T12:22:18.218Z,101584.17
2018-11-03T12:24:49.003Z,101583.20
2018-11-03T12:27:19.657Z,101573.58
2018-11-03T12:29:50.276Z,101572.98
2018-11-03T12:32:21.095Z,101569.77
2018-11-03T12:34:51.794Z,101569.45
2018-11-03T12:37:22.509Z,101570.38
2018-11-03T12:39:53.240Z,101571.20
2018-11-03T12:42:23.860Z,101566.33
2018-11-03T12:44:54.562Z,101559.90
2018-11-03T12:47:25.273Z,101555.83
2018-11-03T12:50:00.720Z,101560.13
2018-11-03T12:52:32.268Z,101556.36
2018-11-03T12:55:02.897Z,101555.43
2018-11-03T12:57:33.552Z,101548.66
2018-11-03T13:00:04.382Z,101540.67
2018-11-03T13:02:35.048Z,101538.44
2018-11-03T13:05:06.538Z,101532.39
2018-11-03T13:07:37.743Z,101523.43
2018-11-03T13:10:10.170Z,101520.80
2018-11-03T13:12:41.537Z,101518.81
2018-11-03T13:15:13.334Z,101517.83
2018-11-03T13:17:44.068Z,101514.75
2018-11-03T13:20:15.272Z,101512.75
2018-11-03T13:22:47.284Z,101510.12
2018-11-03T13:25:17.982Z,101506.39
2018-11-03T13:27:48.676Z,101504.30
2018-11-03T13:30:19.324Z,101500.94
2018-11-03T13:32:50.016Z,101497.13
2018-11-03T13:35:20.696Z,101497.34
2018-11-03T13:37:51.284Z,101500.44
2018-11-03T13:40:22.007Z,101499.30
2018-11-03T13:42:52.717Z,101489.84
2018-11-03T13:45:23.490Z,101492.47
2018-11-03T13:47:54.169Z,101492.02
2018-11-03T13:50:24.890Z,101489.95
2018-11-03T13:52:55.567Z,101493.23
2018-11-03T13:55:26.415Z,101487.59
2018-11-03T13:57:57.088Z,101482.27
2018-11-03T14:00:27.868Z,101482.48
2018-11-03T14:02:58.576Z,101479.08
2018-11-03T14:05:29.295Z,101482.67
2018-11-03T14:08:00.001Z,101482.61
2018-11-03T14:10:30.677Z,101470.63
2018-11-03T14:13:01.396Z,101469.61
2018-11-03T14:15:32.141Z,101470.83
2018-11-03T14:18:02.804Z,101464.45
2018-11-03T14:20:33.466Z,101468.10
2018-11-03T14:23:04.191Z,101466.23
2018-11-03T14:25:34.907Z,101461.98
2018-11-03T14:28:05.763Z,101466.06
2018-11-03T14:30:36.518Z,101460.11
2018-11-03T14:33:16.458Z,101457.39
2018-11-03T14:35:47.143Z,101455.73
2018-11-03T14:38:17.858Z,101447.69
2018-11-03T14:40:48.517Z,101441.08
2018-11-03T14:43:19.228Z,101432.96
2018-11-03T14:45:49.901Z,101426.59
2018-11-03T14:48:20.683Z,101427.61
2018-11-03T14:50:51.576Z,101428.39
2018-11-03T14:53:22.283Z,101421.25
2018-11-03T14:55:53.019Z,101418.28
2018-11-03T14:58:23.715Z,101413.77
2018-11-03T15:00:54.337Z,101416.53
2018-11-03T15:03:25.274Z,101415.24
2018-11-03T15:05:56.030Z,101416.02
2018-11-03T15:08:26.769Z,101407.42
2018-11-03T15:10:57.494Z,101406.58
2018-11-03T15:13:28.322Z,101404.34
2018-11-03T15:15:59.024Z,101404.96
2018-11-03T15:18:29.748Z,101395.97
2018-11-03T15:21:00.743Z,101390.78
2018-11-03T15:23:31.495Z,101382.30
2018-11-03T15:26:02.260Z,101381.88
2018-11-03T15:28:32.922Z,101372.56
2018-11-03T15:31:03.660Z,101374.34
2018-11-03T15:33:34.266Z,101370.47
2018-11-03T15:36:05.072Z,101371.45
2018-11-03T15:38:35.906Z,101365.30
2018-11-03T15:41:07.134Z,101363.47
2018-11-03T15:43:37.707Z,101364.24
2018-11-03T15:46:08.361Z,101373.37
2018-11-03T15:48:39.044Z,101373.40
2018-11-03T15:51:09.715Z,101369.88
2018-11-03T15:53:40.354Z,101367.73
2018-11-03T15:56:10.998Z,101362.27
2018-11-03T15:58:42.244Z,101360.02
2018-11-03T16:01:12.938Z,101358.59
2018-11-03T16:03:46.698Z,101356.27
2018-11-03T16:06:17.419Z,101355.52
2018-11-03T16:08:48.161Z,101353.89
2018-11-03T16:11:18.844Z,101349.20
2018-11-03T16:13:49.524Z,101345.91
2018-11-03T16:16:20.218Z,101346.05
2018-11-03T16:18:50.913Z,101342.06
2018-11-03T16:21:21.515Z,101339.98
2018-11-03T16:23:52.250Z,101343.05
2018-11-03T16:26:22.919Z,101349.11
2018-11-03T16:28:53.707Z,101349.47
2018-11-03T16:31:24.458Z,101348.76
2018-11-03T16:33:55.076Z,101344.33
2018-11-03T16:36:25.730Z,101340.29
2018-11-03T16:38:56.420Z,101335.83
2018-11-03T16:41:27.140Z,101337.95
2018-11-03T16:43:57.815Z,101345.66
2018-11-03T16:46:28.505Z,101347.56
2018-11-03T16:48:59.209Z,101345.04
2018-11-03T16:51:29.902Z,101344.35
2018-11-03T16:54:00.573Z,101349.81
2018-11-03T16:56:31.489Z,101354.69
2018-11-03T16:59:02.088Z,101348.34
2018-11-03T17:01:32.839Z,101348.19
2018-11-03T17:04:03.554Z,101342.58
2018-11-03T17:06:34.257Z,101337.85
2018-11-03T17:09:05.962Z,101337.51
2018-11-03T17:11:36.655Z,101344.25
2018-11-03T17:14:07.441Z,101338.21
2018-11-03T17:16:38.337Z,101338.34
2018-11-03T17:19:09.008Z,101332.27
2018-11-03T17:21:39.838Z,101330.20
2018-11-03T17:24:10.524Z,101318.99
2018-11-03T17:26:41.164Z,101317.33
2018-11-03T17:29:11.911Z,101312.63
2018-11-03T17:31:42.599Z,101313.11
2018-11-03T17:34:13.233Z,101316.26
2018-11-03T17:36:43.859Z,101304.13
2018-11-03T17:39:14.576Z,101292.77
2018-11-03T17:41:45.297Z,101294.59
2018-11-03T17:44:16.155Z,101288.63
2018-11-03T17:46:46.703Z,101287.72
2018-11-03T17:49:17.327Z,101294.90
2018-11-03T17:51:48.015Z,101288.78
2018-11-03T17:54:18.706Z,101295.05
2018-11-03T17:56:49.390Z,101298.16
2018-11-03T17:59:20.032Z,101302.05
2018-11-03T18:01:50.725Z,101300.45
2018-11-03T18:04:21.390Z,101298.84
2018-11-03T18:06:52.075Z,101291.99
2018-11-03T18:09:22.719Z,101290.45
2018-11-03T18:11:53.448Z,101293.52
2018-11-03T18:14:24.088Z,101292.67
2018-11-03T18:16:54.799Z,101291.83
2018-11-03T18:19:25.456Z,101275.47
2018-11-03T18:21:56.212Z,101275.13
2018-11-03T18:24:26.858Z,101276.81
2018-11-03T18:26:57.592Z,101264.28
2018-11-03T18:29:28.288Z,101271.14
2018-11-03T18:31:58.956Z,101270.95
2018-11-03T18:34:29.634Z,101259.29
2018-11-03T18:37:00.272Z,101264.06
2018-11-03T18:39:32.234Z,101266.33
2018-11-03T18:42:02.867Z,101257.64
2018-11-03T18:44:33.614Z,101255.05
2018-11-03T18:47:04.329Z,101252.08
2018-11-03T18:49:35.068Z,101247.25
2018-11-03T18:52:07.078Z,101250.45
2018-11-03T18:54:37.768Z,101242.22
2018-11-03T18:57:08.443Z,101241.38
2018-11-03T18:59:39.034Z,101244.46
2018-11-03T19:02:10.657Z,101244.14
2018-11-03T19:04:41.348Z,101241.14
2018-11-03T19:07:12.108Z,101235.09
2018-11-03T19:09:42.799Z,101240.78
2018-11-03T19:12:13.458Z,101240.86
2018-11-03T19:14:44.096Z,101233.97
2018-11-03T19:17:14.823Z,101236.06
2018-11-03T19:19:45.430Z,101236.58
2018-11-03T19:22:16.116Z,101232.22
2018-11-03T19:24:46.835Z,101233.50
2018-11-03T19:27:17.483Z,101228.70
2018-11-03T19:29:48.220Z,101225.73
2018-11-03T19:32:18.781Z,101220.59
2018-11-03T19:34:49.484Z,101221.54
2018-11-03T19:37:20.092Z,101221.13
2018-11-03T19:39:50.743Z,101220.32
2018-11-03T19:42:21.440Z,101215.18
2018-11-03T19:44:52.045Z,101213.49
2018-11-03T19:47:22.756Z,101213.55
2018-11-03T19:49:53.446Z,101206.14
2018-11-03T19:52:24.145Z,101208.39
2018-11-03T19:54:54.899Z,101202.71
2018-11-03T19:57:25.561Z,101201.88
2018-11-03T19:59:56.254Z,101209.39
2018-11-03T20:02:27.041Z,101205.11
2018-11-03T20:04:57.723Z,101198.17
2018-11-03T20:07:28.431Z,101203.24
2018-11-03T20:09:59.135Z,101198.89
2018-11-03T20:12:29.798Z,101200.26
2018-11-03T20:15:00.531Z,101195.06
2018-11-03T20:17:31.198Z,101196.02
2018-11-03T20:20:01.879Z,101189.91
2018-11-03T20:22:33.209Z,101185.55
2018-11-03T20:25:03.932Z,101184.27
2018-11-03T20:27:34.635Z,101184.33
2018-11-03T20:30:06.518Z,101177.36
2018-11-03T20:32:37.406Z,101176.55
2018-11-03T20:35:08.673Z,101173.52
2018-11-03T20:37:39.780Z,101176.56
2018-11-03T20:40:12.062Z,101172.64
2018-11-03T20:42:42.757Z,101170.09
2018-11-03T20:45:13.439Z,101165.70
2018-11-03T20:47:44.128Z,101162.66
2018-11-03T20:50:15.471Z,101162.71
2018-11-03T20:52:46.130Z,101159.23
2018-11-03T20:55:16.804Z,101161.05
2018-11-03T20:57:47.437Z,101158.89
2018-11-03T21:00:18.091Z,101155.02
2018-11-03T21:02:48.700Z,101156.40
2018-11-03T21:05:19.363Z,101161.63
2018-11-03T21:07:50.038Z,101158.99
2018-11-03T21:10:20.749Z,101154.66
2018-11-03T21:12:51.464Z,101159.42
2018-11-03T21:15:22.179Z,101152.09
2018-11-03T21:17:52.879Z,101145.59
2018-11-03T21:20:23.568Z,101142.16
2018-11-03T21:22:54.306Z,101141.31
2018-11-03T21:25:24.925Z,101135.65
2018-11-03T21:27:55.549Z,101137.48
2018-11-03T21:30:26.243Z,101134.89
2018-11-03T21:32:57.056Z,101135.34
2018-11-03T21:35:27.600Z,101127.98
2018-11-03T21:37:58.324Z,101132.38
2018-11-03T21:40:28.949Z,101128.09
2018-11-03T21:42:59.691Z,101122.42
2018-11-03T21:45:30.304Z,101122.00
2018-11-03T21:48:00.985Z,101115.08
2018-11-03T21:50:31.693Z,101108.56
2018-11-03T21:53:02.314Z,101107.68
2018-11-03T21:55:33.020Z,101092.48
2018-11-03T21:58:03.741Z,101091.59
2018-11-03T22:00:34.450Z,101084.67
2018-11-03T22:03:05.191Z,101081.61
2018-11-03T22:05:35.811Z,101079.91
2018-11-03T22:08:06.593Z,101074.70
2018-11-03T22:10:37.262Z,101074.71
2018-11-03T22:13:07.994Z,101082.62
2018-11-03T22:15:38.650Z,101073.95
2018-11-03T22:18:09.319Z,101070.92
2018-11-03T22:20:40.172Z,101066.61
2018-11-03T22:23:10.884Z,101059.66
2018-11-03T22:25:41.570Z,101054.88
2018-11-03T22:28:12.236Z,101053.13
2018-11-03T22:30:42.855Z,101053.58
2018-11-03T22:33:13.546Z,101047.52
2018-11-03T22:35:44.200Z,101047.10
2018-11-03T22:38:14.867Z,101041.03
2018-11-03T22:40:45.477Z,101036.27
2018-11-03T22:43:16.144Z,101034.97
2018-11-03T22:45:46.804Z,101030.61
2018-11-03T22:48:17.456Z,101025.83
2018-11-03T22:50:48.116Z,101022.38
2018-11-03T22:53:18.787Z,101020.25
2018-11-03T22:55:49.387Z,101014.13
2018-11-03T22:58:20.011Z,101011.15
2018-11-03T23:00:57.295Z,101003.32
2018-11-03T23:03:27.953Z,101002.92
2018-11-03T23:05:58.593Z,100998.16
2018-11-03T23:08:31.907Z,100989.06
2018-11-03T23:11:11.237Z,100981.70
2018-11-03T23:13:54.616Z,100972.17
2018-11-03T23:16:31.480Z,100977.84
2018-11-03T23:19:13.389Z,100979.59
2018-11-03T23:21:44.138Z,100977.44
2018-11-03T23:24:14.802Z,100973.55
2018-11-03T23:26:45.583Z,100975.28
2018-11-03T23:29:16.260Z,100970.48
2018-11-03T23:31:46.911Z,100973.08
2018-11-03T23:34:17.507Z,100973.98
2018-11-03T23:36:48.194Z,100968.80
2018-11-03T23:39:18.850Z,100964.04
2018-11-03T23:41:49.525Z,100961.00
2018-11-03T23:44:20.200Z,100957.52
2018-11-03T23:46:50.934Z,100954.43
2018-11-03T23:49:21.582Z,100945.75
2018-11-03T23:51:52.268Z,100950.98
2018-11-03T23:54:22.926Z,100947.97
2018-11-03T23:56:53.584Z,100939.72
2018-11-03T23:59:24.255Z,100933.69
